• Join FlightAware (Why Join?)
  • Login
  • US Flag 
02:06PM EDT


 

Airport Tracker/Info


-or-


 

Live Flight TrackerFlight Track Log ✈ UCA4838 ✈ 25-Jun-2013 ✈ KROC - KEWR

Flight Track Log - Related Links

Times and Time Zones

All times are in EDT time to prevent confusion due to time zone crossing. See the UCA4838 flight status page for this flight to view local times or setup timezone preferences in your user account.

Time Position Orientation Groundspeed Altitude Reporting Facility
EDT Latitude Longitude Course Direction KTS MPH feet Rate Location/Type
06:31AM 43.0975 -77.6972 124° Southeast 131 151 1,200  Level Cleveland Center
06:32AM 43.0450 -77.6828 169° South 179 206 2,500 960 Climbing Cleveland Center
06:33AM 43.0006 -77.6564 157° South 185 213 3,500 960 Climbing Cleveland Center
06:34AM 42.9889 -77.6142 111° Southeast 201 231 4,100 960 Climbing Cleveland Center
06:35AM 42.9706 -77.5414 109° East 201 231 5,100 960 Climbing Cleveland Center
06:36AM 42.8812 -77.1289 124° Southeast  Level FlightAware Approximate
06:36AM 42.9517 -77.4656 109° East 201 231 6,100  Level Cleveland Center
06:37AM 42.9311 -77.3931 111° Southeast 206 237 7,000 900 Climbing Cleveland Center
06:38AM 42.9081 -77.3175 113° Southeast 206 237 7,900 780 Climbing Cleveland Center
06:40AM 42.8731 -77.1711 108° East 213 245 9,400 780 Climbing New York Center
06:41AM 42.8522 -77.0928 110° East 213 245 10,300 780 Climbing New York Center
06:42AM 42.8294 -77.0142 112° Southeast 213 245 11,000 660 Climbing New York Center
06:43AM 42.8000 -76.9381 118° Southeast 219 252 11,700 780 Climbing New York Center
06:44AM 42.7664 -76.8614 121° Southeast 229 264 12,600 600 Climbing New York Center
06:45AM 42.7328 -76.7875 122° Southeast 239 275 13,000 180 Climbing New York Center
06:46AM 42.6953 -76.7053 122° Southeast 245 282 13,000  Level New York Center
06:47AM 42.6561 -76.6142 120° Southeast 255 293 13,000  Level New York Center
06:48AM 42.6167 -76.5233 121° Southeast 274 315 13,000  Level New York Center
06:48AM 42.5856 -76.4592 123° Southeast 273 314 13,000  Level Boston Center
06:49AM 42.5450 -76.3689 121° Southeast 273 314 13,000  Level Boston Center
06:50AM 42.5044 -76.2792 121° Southeast 278 320 13,000  Level Boston Center
06:51AM 42.4636 -76.1892 122° Southeast 283 326 13,000  Level Boston Center
06:52AM 42.4247 -76.0997 120° Southeast 283 326 13,000  Level Boston Center
06:53AM 42.3917 -76.0247 121° Southeast 290 334 13,000  Level Boston Center
06:54AM 42.3408 -75.9150 122° Southeast 280 322 13,000  Level Boston Center
06:55AM 42.3019 -75.8286 121° Southeast 280 322 13,000  Level Boston Center
06:56AM 42.2606 -75.7394 122° Southeast 286 329 13,000  Level Boston Center
06:57AM 42.2214 -75.6531 121° Southeast 286 329 13,000  Level Boston Center
06:58AM 42.1822 -75.5672 122° Southeast 280 322 13,000  Level Boston Center
06:59AM 42.1389 -75.4781 123° Southeast 280 322 13,000  Level Boston Center
07:00AM 42.0994 -75.3894 121° Southeast 280 322 13,000  Level Boston Center
07:01AM 42.0578 -75.3008 122° Southeast 280 322 13,000  Level Boston Center
07:02AM 42.0247 -75.2097 116° Southeast 280 322 13,000  Level Boston Center
07:03AM 41.9856 -75.1103 118° Southeast 275 316 13,000  Level Boston Center
07:04AM 41.9522 -75.0194 116° Southeast 275 316 13,000 -180 Level Boston Center
07:05AM 41.9039 -74.9422 130° Southeast 265 305 12,700 -720 Descending Boston Center
07:06AM 41.8319 -74.8919 152° Southeast 273 314 11,600 -1,200 Descending Boston Center
07:07AM 41.7622 -74.8419 152° Southeast 292 336 10,300 -1,200 Descending Boston Center
07:08AM 41.6922 -74.7950 153° Southeast 292 336 9,200 -1,200 Descending Boston Center
07:09AM 41.6267 -74.7453 150° Southeast 279 321 7,900 -1,140 Descending Boston Center
07:10AM 41.5567 -74.6956 152° Southeast 279 321 7,000 -780 Descending Boston Center
07:11AM 41.4889 -74.6461 151° Southeast 279 321 6,400 -540 Descending Boston Center
07:12AM 41.4231 -74.6022 153° Southeast 279 321 6,000 -180 Descending Boston Center
07:14AM 41.3333 -74.6167 187° South 253 291 6,000 -120 Level New York TRACON
07:15AM 41.2667 -74.6500 201° Southwest 252 290 5,800 -480 Descending New York TRACON
07:16AM 41.1833 -74.6667 189° South 266 306 5,100 -360 Descending New York TRACON
07:17AM 41.1333 -74.6333 153° Southeast 271 312 5,100  Level New York TRACON
07:18AM 41.1000 -74.5500 118° Southeast 267 307 5,100  Level New York TRACON
07:19AM 41.0667 -74.4667 118° Southeast 264 304 5,100  Level New York TRACON
07:20AM 41.0167 -74.3833 128° Southeast 262 302 5,100 -60 Level New York TRACON
07:21AM 41.0000 -74.3000 105° East 267 307 5,000 -420 Descending New York TRACON
07:22AM 40.9833 -74.2000 102° East 274 315 4,300 -480 Descending New York TRACON
07:22AM 40.9500 -74.1333 123° Southeast 269 310 4,100 -660 Descending New York TRACON
07:23AM 40.8833 -74.1000 159° South 250 288 3,100 -720 Descending New York TRACON
07:24AM 40.8333 -74.0833 166° South 192 221 2,700 -660 Descending New York TRACON
07:25AM 40.7833 -74.1000 194° South 188 216 1,900 -900 Descending New York TRACON
07:26AM 40.7500 -74.1333 217° Southwest 147 169 1,000 -780 Descending New York TRACON
07:27AM 40.7167 -74.1500 201° Southwest 116 133 400 -600 Descending New York TRACON
07:29AM 40.6925 -74.1687 185° South  Level Estimated
07:36AM 40.6925 -74.1687 185° South  Level Estimated
07:37AM 40.6925 -74.1687 185° South  Level Estimated